sensor_id;sensor_type;location;lat;lon;timestamp;pressure;altitude;pressure_sealevel;temperature;humidity
6128;BME280;7073;42.672;23.256;2022-10-16T00:00:36;94989.06;;;8.42;100.00
6128;BME280;7073;42.672;23.256;2022-10-16T00:03:05;95019.84;;;8.45;100.00
6128;BME280;7073;42.672;23.256;2022-10-16T00:05:32;95017.81;;;8.26;100.00
6128;BME280;7073;42.672;23.256;2022-10-16T00:08:00;95018.25;;;8.08;100.00
6128;BME280;7073;42.672;23.256;2022-10-16T00:10:33;94980.06;;;7.66;100.00
6128;BME280;7073;42.672;23.256;2022-10-16T00:13:00;95042.00;;;8.12;100.00
6128;BME280;7073;42.672;23.256;2022-10-16T00:15:28;95020.13;;;7.99;100.00
6128;BME280;7073;42.672;23.256;2022-10-16T00:17:58;95023.44;;;8.08;100.00
6128;BME280;7073;42.672;23.256;2022-10-16T00:20:25;95030.16;;;8.02;100.00
6128;BME280;7073;42.672;23.256;2022-10-16T00:22:55;95042.78;;;7.91;100.00
6128;BME280;7073;42.672;23.256;2022-10-16T00:25:27;95034.22;;;7.76;100.00
6128;BME280;7073;42.672;23.256;2022-10-16T00:28:02;95025.63;;;7.75;100.00
6128;BME280;7073;42.672;23.256;2022-10-16T00:30:37;95032.13;;;8.00;100.00
6128;BME280;7073;42.672;23.256;2022-10-16T00:33:05;95039.75;;;8.23;100.00
6128;BME280;7073;42.672;23.256;2022-10-16T00:35:32;95044.28;;;8.50;100.00
6128;BME280;7073;42.672;23.256;2022-10-16T00:37:59;95018.19;;;8.23;100.00
6128;BME280;7073;42.672;23.256;2022-10-16T00:40:26;95067.78;;;8.13;100.00
6128;BME280;7073;42.672;23.256;2022-10-16T00:42:53;95038.75;;;7.88;100.00
6128;BME280;7073;42.672;23.256;2022-10-16T00:45:23;95019.81;;;7.73;100.00
6128;BME280;7073;42.672;23.256;2022-10-16T00:47:52;94973.25;;;7.51;100.00
6128;BME280;7073;42.672;23.256;2022-10-16T00:50:26;94974.56;;;7.40;100.00
6128;BME280;7073;42.672;23.256;2022-10-16T00:52:56;95052.97;;;7.78;100.00
6128;BME280;7073;42.672;23.256;2022-10-16T00:55:26;94968.28;;;7.20;100.00
6128;BME280;7073;42.672;23.256;2022-10-16T00:57:59;95031.63;;;7.61;100.00
6128;BME280;7073;42.672;23.256;2022-10-16T01:00:30;94987.13;;;7.43;100.00
6128;BME280;7073;42.672;23.256;2022-10-16T01:02:59;95038.03;;;7.80;100.00
6128;BME280;7073;42.672;23.256;2022-10-16T01:05:30;95046.84;;;8.15;100.00
6128;BME280;7073;42.672;23.256;2022-10-16T01:08:08;95040.13;;;8.35;100.00
6128;BME280;7073;42.672;23.256;2022-10-16T01:10:40;95044.50;;;8.34;100.00
6128;BME280;7073;42.672;23.256;2022-10-16T01:13:12;94984.84;;;7.69;100.00
6128;BME280;7073;42.672;23.256;2022-10-16T01:29:12;95030.19;;;7.59;100.00
6128;BME280;7073;42.672;23.256;2022-10-16T01:31:48;95024.34;;;7.86;100.00
6128;BME280;7073;42.672;23.256;2022-10-16T01:34:20;95030.47;;;8.14;100.00
6128;BME280;7073;42.672;23.256;2022-10-16T01:36:55;95005.66;;;7.40;100.00
6128;BME280;7073;42.672;23.256;2022-10-16T01:39:39;95003.22;;;7.09;100.00
6128;BME280;7073;42.672;23.256;2022-10-16T01:42:30;95003.84;;;7.40;100.00
6128;BME280;7073;42.672;23.256;2022-10-16T01:45:01;95031.25;;;7.64;100.00
6128;BME280;7073;42.672;23.256;2022-10-16T01:47:32;95054.34;;;7.74;100.00
6128;BME280;7073;42.672;23.256;2022-10-16T01:50:02;95021.72;;;7.65;100.00
6128;BME280;7073;42.672;23.256;2022-10-16T01:52:32;95044.66;;;7.82;100.00
6128;BME280;7073;42.672;23.256;2022-10-16T01:55:04;95050.00;;;7.95;100.00
6128;BME280;7073;42.672;23.256;2022-10-16T01:57:34;95034.16;;;7.55;100.00
6128;BME280;7073;42.672;23.256;2022-10-16T02:00:08;95060.97;;;7.76;100.00
6128;BME280;7073;42.672;23.256;2022-10-16T02:02:38;95030.81;;;7.75;100.00
6128;BME280;7073;42.672;23.256;2022-10-16T02:05:11;95060.75;;;7.92;100.00
6128;BME280;7073;42.672;23.256;2022-10-16T02:07:39;95050.31;;;7.71;100.00
6128;BME280;7073;42.672;23.256;2022-10-16T02:10:08;95069.91;;;7.74;100.00
6128;BME280;7073;42.672;23.256;2022-10-16T02:12:38;95051.13;;;7.57;100.00
6128;BME280;7073;42.672;23.256;2022-10-16T02:15:10;95075.53;;;7.33;100.00
6128;BME280;7073;42.672;23.256;2022-10-16T02:17:39;95061.75;;;7.18;100.00
6128;BME280;7073;42.672;23.256;2022-10-16T02:20:14;95029.81;;;6.89;100.00
6128;BME280;7073;42.672;23.256;2022-10-16T02:22:47;95059.16;;;7.33;100.00
6128;BME280;7073;42.672;23.256;2022-10-16T02:25:24;95048.97;;;7.31;100.00
6128;BME280;7073;42.672;23.256;2022-10-16T02:27:57;95040.81;;;7.05;100.00
6128;BME280;7073;42.672;23.256;2022-10-16T02:37:05;95070.22;;;7.27;100.00
6128;BME280;7073;42.672;23.256;2022-10-16T02:39:34;95036.28;;;7.22;100.00
6128;BME280;7073;42.672;23.256;2022-10-16T02:42:04;95086.50;;;7.35;100.00
6128;BME280;7073;42.672;23.256;2022-10-16T02:44:56;95005.22;;;6.70;100.00
6128;BME280;7073;42.672;23.256;2022-10-16T02:47:58;95092.91;;;7.25;100.00
6128;BME280;7073;42.672;23.256;2022-10-16T02:50:59;95061.94;;;7.31;100.00
6128;BME280;7073;42.672;23.256;2022-10-16T02:53:28;95096.34;;;7.69;100.00
6128;BME280;7073;42.672;23.256;2022-10-16T02:55:55;95080.53;;;7.79;100.00
6128;BME280;7073;42.672;23.256;2022-10-16T02:58:22;95092.69;;;7.78;100.00
6128;BME280;7073;42.672;23.256;2022-10-16T03:00:49;95103.25;;;7.62;100.00
6128;BME280;7073;42.672;23.256;2022-10-16T03:03:17;95075.84;;;7.16;100.00
6128;BME280;7073;42.672;23.256;2022-10-16T03:05:48;95095.19;;;7.43;100.00
6128;BME280;7073;42.672;23.256;2022-10-16T03:08:17;95004.72;;;7.04;100.00
6128;BME280;7073;42.672;23.256;2022-10-16T03:10:50;95085.44;;;7.59;100.00
6128;BME280;7073;42.672;23.256;2022-10-16T03:13:17;95103.88;;;7.50;100.00
6128;BME280;7073;42.672;23.256;2022-10-16T03:15:45;95105.22;;;7.60;100.00
6128;BME280;7073;42.672;23.256;2022-10-16T03:18:13;95079.56;;;7.65;100.00
6128;BME280;7073;42.672;23.256;2022-10-16T03:20:42;95014.81;;;6.84;100.00
6128;BME280;7073;42.672;23.256;2022-10-16T03:23:14;95071.69;;;7.44;100.00
6128;BME280;7073;42.672;23.256;2022-10-16T03:25:42;95111.72;;;7.85;100.00
6128;BME280;7073;42.672;23.256;2022-10-16T03:28:10;95108.78;;;7.59;100.00
6128;BME280;7073;42.672;23.256;2022-10-16T03:30:37;95112.53;;;7.86;100.00
6128;BME280;7073;42.672;23.256;2022-10-16T03:33:05;95118.91;;;7.83;100.00
6128;BME280;7073;42.672;23.256;2022-10-16T03:35:32;95058.72;;;7.44;100.00
6128;BME280;7073;42.672;23.256;2022-10-16T03:38:00;95114.31;;;7.85;100.00
6128;BME280;7073;42.672;23.256;2022-10-16T03:40:29;95057.00;;;7.07;100.00
6128;BME280;7073;42.672;23.256;2022-10-16T03:42:57;95060.84;;;7.26;100.00
6128;BME280;7073;42.672;23.256;2022-10-16T03:45:26;95120.16;;;7.73;100.00
6128;BME280;7073;42.672;23.256;2022-10-16T03:47:53;95091.47;;;7.74;100.00
6128;BME280;7073;42.672;23.256;2022-10-16T03:50:20;95087.59;;;7.04;100.00
6128;BME280;7073;42.672;23.256;2022-10-16T03:52:53;94991.19;;;6.19;100.00
6128;BME280;7073;42.672;23.256;2022-10-16T03:59:03;95064.72;;;6.55;100.00
6128;BME280;7073;42.672;23.256;2022-10-16T04:01:32;94980.03;;;6.27;100.00
6128;BME280;7073;42.672;23.256;2022-10-16T04:04:03;95101.31;;;7.12;100.00
6128;BME280;7073;42.672;23.256;2022-10-16T04:06:47;95007.88;;;6.62;100.00
6128;BME280;7073;42.672;23.256;2022-10-16T04:09:30;95106.50;;;7.27;100.00
6128;BME280;7073;42.672;23.256;2022-10-16T04:11:59;95103.56;;;7.30;100.00
6128;BME280;7073;42.672;23.256;2022-10-16T04:14:39;95106.53;;;7.56;100.00
6128;BME280;7073;42.672;23.256;2022-10-16T04:17:11;95082.94;;;7.51;100.00
6128;BME280;7073;42.672;23.256;2022-10-16T04:19:39;95097.25;;;7.76;100.00
6128;BME280;7073;42.672;23.256;2022-10-16T04:22:08;95092.16;;;7.83;100.00
6128;BME280;7073;42.672;23.256;2022-10-16T04:28:04;95116.91;;;7.85;100.00
6128;BME280;7073;42.672;23.256;2022-10-16T04:30:56;95122.03;;;7.79;100.00
6128;BME280;7073;42.672;23.256;2022-10-16T04:33:42;95124.25;;;7.67;100.00
6128;BME280;7073;42.672;23.256;2022-10-16T04:36:09;95109.97;;;7.71;100.00
6128;BME280;7073;42.672;23.256;2022-10-16T04:38:36;95115.50;;;7.97;100.00
6128;BME280;7073;42.672;23.256;2022-10-16T04:41:05;95116.63;;;8.10;100.00
6128;BME280;7073;42.672;23.256;2022-10-16T04:43:32;95129.28;;;7.83;100.00
6128;BME280;7073;42.672;23.256;2022-10-16T04:45:59;95123.78;;;7.49;100.00
6128;BME280;7073;42.672;23.256;2022-10-16T04:48:27;95119.00;;;7.61;100.00
6128;BME280;7073;42.672;23.256;2022-10-16T04:50:55;95132.94;;;7.74;100.00
6128;BME280;7073;42.672;23.256;2022-10-16T04:53:22;95138.81;;;7.54;100.00
6128;BME280;7073;42.672;23.256;2022-10-16T04:55:49;95138.38;;;7.65;100.00
6128;BME280;7073;42.672;23.256;2022-10-16T04:58:16;95094.88;;;7.23;100.00
6128;BME280;7073;42.672;23.256;2022-10-16T05:00:43;95148.66;;;7.73;100.00
6128;BME280;7073;42.672;23.256;2022-10-16T05:03:11;95151.84;;;7.46;100.00
6128;BME280;7073;42.672;23.256;2022-10-16T05:05:42;95152.28;;;7.34;100.00
6128;BME280;7073;42.672;23.256;2022-10-16T05:08:11;95133.72;;;7.08;100.00
6128;BME280;7073;42.672;23.256;2022-10-16T05:10:38;95134.56;;;7.01;100.00
6128;BME280;7073;42.672;23.256;2022-10-16T05:13:05;95151.44;;;6.97;100.00
6128;BME280;7073;42.672;23.256;2022-10-16T05:15:33;95165.97;;;7.06;100.00
6128;BME280;7073;42.672;23.256;2022-10-16T05:18:00;95163.94;;;7.53;100.00
6128;BME280;7073;42.672;23.256;2022-10-16T05:20:27;95160.13;;;7.78;100.00
6128;BME280;7073;42.672;23.256;2022-10-16T05:22:54;95159.94;;;7.80;100.00
6128;BME280;7073;42.672;23.256;2022-10-16T05:25:22;95159.19;;;7.57;100.00
6128;BME280;7073;42.672;23.256;2022-10-16T05:27:49;95167.28;;;7.76;100.00
6128;BME280;7073;42.672;23.256;2022-10-16T05:30:17;95167.28;;;7.76;100.00
6128;BME280;7073;42.672;23.256;2022-10-16T05:32:47;95169.25;;;7.89;100.00
6128;BME280;7073;42.672;23.256;2022-10-16T05:35:14;95159.41;;;8.14;100.00
6128;BME280;7073;42.672;23.256;2022-10-16T05:37:41;95139.03;;;8.11;100.00
6128;BME280;7073;42.672;23.256;2022-10-16T05:40:08;95164.53;;;8.72;100.00
6128;BME280;7073;42.672;23.256;2022-10-16T05:42:37;95173.72;;;8.89;100.00
6128;BME280;7073;42.672;23.256;2022-10-16T05:45:05;95173.75;;;8.96;100.00
6128;BME280;7073;42.672;23.256;2022-10-16T05:47:32;95178.69;;;9.27;100.00
6128;BME280;7073;42.672;23.256;2022-10-16T05:49:59;95180.03;;;9.22;100.00
6128;BME280;7073;42.672;23.256;2022-10-16T05:52:26;95117.13;;;8.49;100.00
6128;BME280;7073;42.672;23.256;2022-10-16T05:54:53;95179.09;;;8.52;100.00
6128;BME280;7073;42.672;23.256;2022-10-16T05:57:20;95183.50;;;8.73;100.00
6128;BME280;7073;42.672;23.256;2022-10-16T05:59:48;95185.50;;;8.71;100.00
6128;BME280;7073;42.672;23.256;2022-10-16T06:02:15;95191.41;;;8.65;100.00
6128;BME280;7073;42.672;23.256;2022-10-16T06:04:42;95196.09;;;8.90;100.00
6128;BME280;7073;42.672;23.256;2022-10-16T06:07:08;95192.41;;;8.99;100.00
6128;BME280;7073;42.672;23.256;2022-10-16T06:09:36;95206.91;;;9.08;100.00
6128;BME280;7073;42.672;23.256;2022-10-16T06:12:03;95203.19;;;9.17;100.00
6128;BME280;7073;42.672;23.256;2022-10-16T06:14:30;95194.38;;;9.61;100.00
6128;BME280;7073;42.672;23.256;2022-10-16T06:16:58;95214.94;;;9.56;100.00
6128;BME280;7073;42.672;23.256;2022-10-16T06:19:25;95207.16;;;10.11;100.00
6128;BME280;7073;42.672;23.256;2022-10-16T06:21:52;95212.28;;;9.98;100.00
6128;BME280;7073;42.672;23.256;2022-10-16T06:24:18;95198.31;;;10.06;100.00
6128;BME280;7073;42.672;23.256;2022-10-16T06:26:45;95220.22;;;10.52;100.00
6128;BME280;7073;42.672;23.256;2022-10-16T06:29:12;95222.81;;;10.46;100.00
6128;BME280;7073;42.672;23.256;2022-10-16T06:31:39;95190.63;;;10.25;100.00
6128;BME280;7073;42.672;23.256;2022-10-16T06:34:08;95226.03;;;10.20;100.00
6128;BME280;7073;42.672;23.256;2022-10-16T06:36:36;95219.94;;;10.88;100.00
6128;BME280;7073;42.672;23.256;2022-10-16T06:39:03;95226.75;;;10.76;100.00
6128;BME280;7073;42.672;23.256;2022-10-16T06:41:30;95225.13;;;10.75;100.00
6128;BME280;7073;42.672;23.256;2022-10-16T06:43:56;95234.91;;;11.14;100.00
6128;BME280;7073;42.672;23.256;2022-10-16T06:46:25;95238.44;;;10.93;100.00
6128;BME280;7073;42.672;23.256;2022-10-16T06:48:52;95238.38;;;11.40;100.00
6128;BME280;7073;42.672;23.256;2022-10-16T06:51:22;95244.19;;;11.42;98.50
6128;BME280;7073;42.672;23.256;2022-10-16T06:53:51;95255.25;;;11.57;97.82
6128;BME280;7073;42.672;23.256;2022-10-16T06:56:20;95250.44;;;11.54;97.79
6128;BME280;7073;42.672;23.256;2022-10-16T06:58:48;95245.44;;;11.66;96.84
6128;BME280;7073;42.672;23.256;2022-10-16T07:01:17;95256.69;;;11.66;97.47
6128;BME280;7073;42.672;23.256;2022-10-16T07:03:45;95257.91;;;11.71;98.06
6128;BME280;7073;42.672;23.256;2022-10-16T07:06:15;95255.53;;;11.82;97.49
6128;BME280;7073;42.672;23.256;2022-10-16T07:08:45;95257.50;;;11.93;95.44
6128;BME280;7073;42.672;23.256;2022-10-16T07:11:14;95255.50;;;12.21;93.88
6128;BME280;7073;42.672;23.256;2022-10-16T07:13:43;95259.47;;;12.44;92.86
6128;BME280;7073;42.672;23.256;2022-10-16T07:16:12;95270.16;;;12.36;93.30
6128;BME280;7073;42.672;23.256;2022-10-16T07:18:40;95247.47;;;12.30;93.18
6128;BME280;7073;42.672;23.256;2022-10-16T07:21:10;95274.81;;;12.14;92.76
6128;BME280;7073;42.672;23.256;2022-10-16T07:23:37;95267.50;;;12.55;91.83
6128;BME280;7073;42.672;23.256;2022-10-16T07:26:07;95271.13;;;12.61;89.88
6128;BME280;7073;42.672;23.256;2022-10-16T07:28:34;95277.69;;;12.89;88.53
6128;BME280;7073;42.672;23.256;2022-10-16T07:31:01;95266.56;;;12.04;89.47
6128;BME280;7073;42.672;23.256;2022-10-16T07:33:29;95274.50;;;12.74;90.20
6128;BME280;7073;42.672;23.256;2022-10-16T07:35:56;95278.44;;;13.10;88.75
6128;BME280;7073;42.672;23.256;2022-10-16T07:38:23;95277.72;;;13.34;87.35
6128;BME280;7073;42.672;23.256;2022-10-16T07:40:56;95275.47;;;12.86;85.74
6128;BME280;7073;42.672;23.256;2022-10-16T07:43:24;95277.19;;;13.19;85.61
6128;BME280;7073;42.672;23.256;2022-10-16T07:45:52;95274.75;;;13.24;85.83
6128;BME280;7073;42.672;23.256;2022-10-16T07:48:19;95277.16;;;13.63;83.07
6128;BME280;7073;42.672;23.256;2022-10-16T07:50:46;95282.06;;;13.84;83.15
6128;BME280;7073;42.672;23.256;2022-10-16T07:53:13;95286.41;;;13.97;82.54
6128;BME280;7073;42.672;23.256;2022-10-16T07:55:40;95288.81;;;14.23;80.86
6128;BME280;7073;42.672;23.256;2022-10-16T07:58:07;95290.34;;;13.81;81.47
6128;BME280;7073;42.672;23.256;2022-10-16T08:00:35;95293.94;;;13.87;81.87
6128;BME280;7073;42.672;23.256;2022-10-16T08:03:03;95279.44;;;14.40;78.50
6128;BME280;7073;42.672;23.256;2022-10-16T08:05:31;95282.66;;;14.60;76.86
6128;BME280;7073;42.672;23.256;2022-10-16T08:07:58;95283.91;;;15.12;74.12
6128;BME280;7073;42.672;23.256;2022-10-16T08:10:26;95287.47;;;13.89;77.47
6128;BME280;7073;42.672;23.256;2022-10-16T08:12:54;95282.75;;;14.23;77.26
6128;BME280;7073;42.672;23.256;2022-10-16T08:15:21;95275.03;;;14.77;75.81
6128;BME280;7073;42.672;23.256;2022-10-16T08:17:56;95278.94;;;15.22;74.82
6128;BME280;7073;42.672;23.256;2022-10-16T08:20:24;95286.38;;;15.25;74.55
6128;BME280;7073;42.672;23.256;2022-10-16T08:22:50;95290.75;;;15.50;70.85
6128;BME280;7073;42.672;23.256;2022-10-16T08:25:18;95290.00;;;15.61;71.61
6128;BME280;7073;42.672;23.256;2022-10-16T08:27:44;95283.63;;;14.84;71.30
6128;BME280;7073;42.672;23.256;2022-10-16T08:30:11;95284.63;;;15.56;70.56
6128;BME280;7073;42.672;23.256;2022-10-16T08:32:39;95286.91;;;15.93;67.83
6128;BME280;7073;42.672;23.256;2022-10-16T08:35:08;95291.59;;;15.91;66.19
6128;BME280;7073;42.672;23.256;2022-10-16T08:37:36;95286.13;;;15.93;67.71
6128;BME280;7073;42.672;23.256;2022-10-16T08:40:04;95293.22;;;16.04;66.40
6128;BME280;7073;42.672;23.256;2022-10-16T08:42:41;95290.34;;;16.82;62.85
6128;BME280;7073;42.672;23.256;2022-10-16T08:45:26;95299.91;;;17.11;61.29
6128;BME280;7073;42.672;23.256;2022-10-16T08:48:03;95298.91;;;16.89;62.08
6128;BME280;7073;42.672;23.256;2022-10-16T08:50:37;95293.31;;;16.74;62.19
6128;BME280;7073;42.672;23.256;2022-10-16T08:53:04;95303.13;;;17.13;59.75
6128;BME280;7073;42.672;23.256;2022-10-16T08:55:37;95305.69;;;17.36;59.05
6128;BME280;7073;42.672;23.256;2022-10-16T08:58:12;95256.34;;;16.34;58.69
6128;BME280;7073;42.672;23.256;2022-10-16T09:00:39;95301.41;;;17.58;59.40
6128;BME280;7073;42.672;23.256;2022-10-16T09:03:14;95297.56;;;17.78;57.38
6128;BME280;7073;42.672;23.256;2022-10-16T09:05:54;95311.63;;;18.28;54.36
6128;BME280;7073;42.672;23.256;2022-10-16T09:08:30;95305.88;;;18.14;54.05
6128;BME280;7073;42.672;23.256;2022-10-16T09:11:07;95305.38;;;18.17;53.63
6128;BME280;7073;42.672;23.256;2022-10-16T09:13:43;95310.38;;;18.02;52.54
6128;BME280;7073;42.672;23.256;2022-10-16T09:16:19;95308.59;;;18.19;49.83
6128;BME280;7073;42.672;23.256;2022-10-16T09:18:52;95304.66;;;18.05;49.93
6128;BME280;7073;42.672;23.256;2022-10-16T09:21:24;95299.63;;;18.37;49.37
6128;BME280;7073;42.672;23.256;2022-10-16T09:23:53;95282.84;;;18.60;49.14
6128;BME280;7073;42.672;23.256;2022-10-16T09:26:20;95307.81;;;19.07;48.20
6128;BME280;7073;42.672;23.256;2022-10-16T09:28:48;95310.06;;;19.37;47.64
6128;BME280;7073;42.672;23.256;2022-10-16T09:31:18;95316.84;;;19.49;46.50
6128;BME280;7073;42.672;23.256;2022-10-16T09:33:48;95311.75;;;20.18;46.17
6128;BME280;7073;42.672;23.256;2022-10-16T09:36:17;95314.75;;;20.53;43.75
6128;BME280;7073;42.672;23.256;2022-10-16T09:38:46;95324.81;;;20.88;43.11
6128;BME280;7073;42.672;23.256;2022-10-16T09:41:16;95311.38;;;21.05;42.46
6128;BME280;7073;42.672;23.256;2022-10-16T09:43:48;95310.69;;;20.78;41.12
6128;BME280;7073;42.672;23.256;2022-10-16T09:46:28;95316.59;;;20.90;41.45
6128;BME280;7073;42.672;23.256;2022-10-16T09:48:58;95309.34;;;21.74;39.96
6128;BME280;7073;42.672;23.256;2022-10-16T09:51:27;95304.47;;;22.93;38.49
6128;BME280;7073;42.672;23.256;2022-10-16T09:53:58;95301.22;;;22.06;39.50
6128;BME280;7073;42.672;23.256;2022-10-16T09:56:26;95294.06;;;22.21;39.57
6128;BME280;7073;42.672;23.256;2022-10-16T09:58:55;95294.88;;;22.12;39.45
6128;BME280;7073;42.672;23.256;2022-10-16T10:01:24;95300.41;;;22.05;38.91
6128;BME280;7073;42.672;23.256;2022-10-16T10:03:55;95292.75;;;22.24;39.24
6128;BME280;7073;42.672;23.256;2022-10-16T10:06:28;95290.38;;;22.42;38.88
6128;BME280;7073;42.672;23.256;2022-10-16T10:09:03;95271.25;;;22.25;38.24
6128;BME280;7073;42.672;23.256;2022-10-16T10:11:42;95289.84;;;22.96;38.02
6128;BME280;7073;42.672;23.256;2022-10-16T10:14:17;95282.78;;;21.64;38.92
6128;BME280;7073;42.672;23.256;2022-10-16T10:16:44;95291.47;;;22.72;37.81
6128;BME280;7073;42.672;23.256;2022-10-16T10:19:20;95285.06;;;22.52;37.64
6128;BME280;7073;42.672;23.256;2022-10-16T10:21:48;95284.81;;;22.49;36.31
6128;BME280;7073;42.672;23.256;2022-10-16T10:24:18;95279.75;;;22.12;36.49
6128;BME280;7073;42.672;23.256;2022-10-16T10:26:54;95284.50;;;22.96;36.67
6128;BME280;7073;42.672;23.256;2022-10-16T10:29:37;95270.16;;;22.87;40.73
6128;BME280;7073;42.672;23.256;2022-10-16T10:32:17;95274.75;;;21.39;37.16
6128;BME280;7073;42.672;23.256;2022-10-16T10:34:56;95264.75;;;23.27;37.51
6128;BME280;7073;42.672;23.256;2022-10-16T10:37:37;95263.38;;;23.94;35.96
6128;BME280;7073;42.672;23.256;2022-10-16T10:40:23;95257.53;;;23.97;35.47
6128;BME280;7073;42.672;23.256;2022-10-16T10:42:59;95257.28;;;24.32;34.62
6128;BME280;7073;42.672;23.256;2022-10-16T10:45:38;95252.06;;;24.17;35.53
6128;BME280;7073;42.672;23.256;2022-10-16T10:51:22;95255.31;;;24.09;33.73
6128;BME280;7073;42.672;23.256;2022-10-16T10:54:00;95261.97;;;24.06;33.43
6128;BME280;7073;42.672;23.256;2022-10-16T10:56:44;95243.34;;;23.62;34.15
6128;BME280;7073;42.672;23.256;2022-10-16T10:59:32;95235.47;;;23.32;34.89
6128;BME280;7073;42.672;23.256;2022-10-16T11:02:10;95238.47;;;23.74;33.75
6128;BME280;7073;42.672;23.256;2022-10-16T11:07:51;95235.03;;;23.00;35.07
6128;BME280;7073;42.672;23.256;2022-10-16T11:10:21;95224.22;;;23.99;37.32
6128;BME280;7073;42.672;23.256;2022-10-16T11:12:54;95232.19;;;24.96;34.15
6128;BME280;7073;42.672;23.256;2022-10-16T11:15:25;95225.00;;;23.56;34.93
6128;BME280;7073;42.672;23.256;2022-10-16T11:17:58;95231.00;;;25.30;36.45
6128;BME280;7073;42.672;23.256;2022-10-16T11:20:29;95223.84;;;24.16;33.52
6128;BME280;7073;42.672;23.256;2022-10-16T11:23:01;95231.47;;;24.27;31.82
6128;BME280;7073;42.672;23.256;2022-10-16T11:25:33;95218.50;;;23.18;33.79
6128;BME280;7073;42.672;23.256;2022-10-16T11:28:06;95221.84;;;24.31;33.59
6128;BME280;7073;42.672;23.256;2022-10-16T11:30:41;95216.13;;;24.14;33.96
6128;BME280;7073;42.672;23.256;2022-10-16T11:33:23;95219.06;;;24.47;35.29
6128;BME280;7073;42.672;23.256;2022-10-16T11:35:55;95212.25;;;24.36;33.41
6128;BME280;7073;42.672;23.256;2022-10-16T11:38:29;95224.09;;;24.77;32.32
6128;BME280;7073;42.672;23.256;2022-10-16T11:41:00;95221.31;;;23.96;32.36
6128;BME280;7073;42.672;23.256;2022-10-16T11:43:34;95220.31;;;24.25;32.43
6128;BME280;7073;42.672;23.256;2022-10-16T11:46:04;95208.16;;;24.14;31.58
6128;BME280;7073;42.672;23.256;2022-10-16T11:48:39;95222.44;;;25.33;30.84
6128;BME280;7073;42.672;23.256;2022-10-16T11:51:13;95218.97;;;24.85;31.85
6128;BME280;7073;42.672;23.256;2022-10-16T11:53:45;95224.69;;;25.45;30.57
6128;BME280;7073;42.672;23.256;2022-10-16T11:56:13;95218.34;;;25.41;30.59
6128;BME280;7073;42.672;23.256;2022-10-16T11:58:51;95218.31;;;24.99;31.93
6128;BME280;7073;42.672;23.256;2022-10-16T12:01:24;95213.50;;;23.65;32.06
6128;BME280;7073;42.672;23.256;2022-10-16T12:04:02;95209.31;;;24.32;32.67
6128;BME280;7073;42.672;23.256;2022-10-16T12:06:34;95198.34;;;24.67;35.50
6128;BME280;7073;42.672;23.256;2022-10-16T12:09:03;95204.59;;;24.81;32.73
6128;BME280;7073;42.672;23.256;2022-10-16T12:11:36;95204.44;;;26.00;30.72
6128;BME280;7073;42.672;23.256;2022-10-16T12:14:07;95195.28;;;25.87;30.19
6128;BME280;7073;42.672;23.256;2022-10-16T12:16:51;95204.41;;;26.37;30.13
6128;BME280;7073;42.672;23.256;2022-10-16T12:19:21;95199.38;;;26.36;31.55
6128;BME280;7073;42.672;23.256;2022-10-16T12:21:49;95206.53;;;26.22;30.65
6128;BME280;7073;42.672;23.256;2022-10-16T12:24:22;95203.75;;;25.94;30.27
6128;BME280;7073;42.672;23.256;2022-10-16T12:26:53;95205.91;;;26.43;30.12
6128;BME280;7073;42.672;23.256;2022-10-16T12:29:29;95204.31;;;25.54;31.63
6128;BME280;7073;42.672;23.256;2022-10-16T12:31:57;95200.88;;;25.06;32.11
6128;BME280;7073;42.672;23.256;2022-10-16T12:34:28;95201.47;;;25.45;32.04
6128;BME280;7073;42.672;23.256;2022-10-16T12:37:08;95207.94;;;25.39;31.50
6128;BME280;7073;42.672;23.256;2022-10-16T12:39:36;95208.94;;;26.04;30.85
6128;BME280;7073;42.672;23.256;2022-10-16T12:42:05;95192.41;;;25.65;30.96
6128;BME280;7073;42.672;23.256;2022-10-16T12:44:35;95197.06;;;26.10;30.91
6128;BME280;7073;42.672;23.256;2022-10-16T12:47:02;95204.50;;;26.32;30.01
6128;BME280;7073;42.672;23.256;2022-10-16T12:49:36;95203.03;;;26.40;29.62
6128;BME280;7073;42.672;23.256;2022-10-16T12:52:23;95210.66;;;25.58;30.04
6128;BME280;7073;42.672;23.256;2022-10-16T12:54:50;95200.28;;;26.13;31.17
6128;BME280;7073;42.672;23.256;2022-10-16T12:57:31;95207.47;;;26.12;29.72
6128;BME280;7073;42.672;23.256;2022-10-16T13:00:10;95205.06;;;26.10;30.26
6128;BME280;7073;42.672;23.256;2022-10-16T13:02:54;95206.84;;;26.52;31.72
6128;BME280;7073;42.672;23.256;2022-10-16T13:05:34;95215.72;;;26.16;30.29
6128;BME280;7073;42.672;23.256;2022-10-16T13:08:22;95213.75;;;26.02;29.56
6128;BME280;7073;42.672;23.256;2022-10-16T13:10:58;95214.78;;;26.57;30.05
6128;BME280;7073;42.672;23.256;2022-10-16T13:13:47;95212.66;;;27.00;30.41
6128;BME280;7073;42.672;23.256;2022-10-16T13:16:25;95202.75;;;26.87;28.79
6128;BME280;7073;42.672;23.256;2022-10-16T13:19:01;95204.44;;;26.51;30.12
6128;BME280;7073;42.672;23.256;2022-10-16T13:21:38;95208.97;;;26.37;29.59
6128;BME280;7073;42.672;23.256;2022-10-16T13:24:19;95211.38;;;26.20;29.04
6128;BME280;7073;42.672;23.256;2022-10-16T13:26:54;95206.34;;;27.23;28.61
6128;BME280;7073;42.672;23.256;2022-10-16T13:29:22;95206.13;;;27.20;29.70
6128;BME280;7073;42.672;23.256;2022-10-16T13:31:51;95207.47;;;26.31;30.70
6128;BME280;7073;42.672;23.256;2022-10-16T13:34:20;95191.94;;;26.33;32.54
6128;BME280;7073;42.672;23.256;2022-10-16T13:36:49;95212.91;;;24.51;32.08
6128;BME280;7073;42.672;23.256;2022-10-16T13:39:21;95192.34;;;26.40;30.10
6128;BME280;7073;42.672;23.256;2022-10-16T13:42:00;95216.22;;;26.50;29.58
6128;BME280;7073;42.672;23.256;2022-10-16T13:44:31;95210.28;;;26.53;29.37
6128;BME280;7073;42.672;23.256;2022-10-16T13:47:03;95223.00;;;25.30;30.76
6128;BME280;7073;42.672;23.256;2022-10-16T13:49:30;95208.00;;;26.46;32.74
6128;BME280;7073;42.672;23.256;2022-10-16T13:51:58;95223.31;;;26.73;29.09
6128;BME280;7073;42.672;23.256;2022-10-16T13:54:26;95216.81;;;26.47;30.58
6128;BME280;7073;42.672;23.256;2022-10-16T13:56:54;95216.66;;;26.25;30.30
6128;BME280;7073;42.672;23.256;2022-10-16T13:59:25;95214.19;;;26.09;31.15
6128;BME280;7073;42.672;23.256;2022-10-16T14:01:55;95216.06;;;26.28;29.67
6128;BME280;7073;42.672;23.256;2022-10-16T14:04:25;95219.19;;;27.08;30.01